Time;durP1;ratioP1;P1;durP2;ratioP2;P2;SDS_P1;SDS_P2;PMS_P1;PMS_P2;Temp;Humidity;BMP_temperature;BMP_pressure;BME280_temperature;BME280_humidity;BME280_pressure;Samples;Min_cycle;Max_cycle;Signal;HPM_P1;HPM_P2
2022/01/01 00:00:29;;;;;;;24.25;9.48;;;;;;;12.24;87.58;100559.19;5052868;28;20044;-84
2022/01/01 00:02:56;;;;;;;23.30;10.50;;;;;;;12.32;87.14;100569.66;5054804;28;20025;-83
2022/01/01 00:05:22;;;;;;;21.20;9.40;;;;;;;12.39;87.30;100569.44;5056789;28;20025;-84
2022/01/01 00:07:47;;;;;;;15.52;9.30;;;;;;;12.39;87.13;100560.44;5054529;28;20379;-83
2022/01/01 00:10:13;;;;;;;19.52;10.20;;;;;;;12.38;86.91;100578.75;5054495;28;20040;-83
2022/01/01 00:15:43;;;;;;;31.95;10.80;;;;;;;12.32;86.78;100582.50;5055165;28;20128;-83
2022/01/01 00:18:08;;;;;;;19.52;10.25;;;;;;;12.41;87.39;100591.88;5054795;28;20104;-84
2022/01/01 00:20:33;;;;;;;19.53;10.17;;;;;;;12.35;87.48;100592.91;5054809;28;20499;-83
2022/01/01 00:22:59;;;;;;;19.40;9.13;;;;;;;12.25;87.27;100597.19;5055282;28;20272;-82
2022/01/01 00:25:24;;;;;;;25.33;10.95;;;;;;;12.24;87.07;100587.31;5054771;28;20434;-84
2022/01/01 00:27:49;;;;;;;16.30;8.98;;;;;;;12.11;87.46;100599.50;5055558;28;20128;-83
2022/01/01 00:30:15;;;;;;;14.85;8.00;;;;;;;12.26;88.03;100595.28;5054939;28;20041;-84
2022/01/01 00:32:40;;;;;;;19.90;9.63;;;;;;;12.26;87.33;100595.28;5052652;28;20025;-83
2022/01/01 00:35:06;;;;;;;17.77;8.70;;;;;;;12.39;87.02;100593.25;5055600;28;20361;-84
2022/01/01 00:37:31;;;;;;;19.45;8.57;;;;;;;12.24;87.35;100597.47;5059062;28;20109;-84
2022/01/01 00:39:57;;;;;;;21.65;10.18;;;;;;;12.32;87.34;100598.91;5057592;28;20031;-84
2022/01/01 00:42:25;;;;;;;15.98;7.57;;;;;;;12.28;87.79;100595.03;5060343;28;20025;-84
2022/01/01 00:44:50;;;;;;;22.85;10.57;;;;;;;12.24;87.33;100592.00;5059132;28;20116;-84
2022/01/01 00:47:16;;;;;;;17.27;7.72;;;;;;;12.22;87.83;100583.22;5057861;28;20124;-82
2022/01/01 00:49:41;;;;;;;17.65;8.82;;;;;;;12.06;87.92;100582.19;5057971;28;20464;-83
2022/01/01 00:52:07;;;;;;;18.60;7.80;;;;;;;12.33;86.75;100587.72;5058299;28;20051;-84
2022/01/01 00:54:32;;;;;;;15.95;8.38;;;;;;;12.26;87.59;100589.81;5058363;28;20383;-82
2022/01/01 00:56:57;;;;;;;13.80;7.00;;;;;;;12.25;87.51;100594.47;5058693;28;20364;-83
2022/01/01 00:59:24;;;;;;;18.85;8.18;;;;;;;12.07;87.99;100589.28;5058451;28;20108;-84
2022/01/01 01:01:49;;;;;;;19.73;7.85;;;;;;;12.32;87.44;100590.72;5058886;28;20029;-84
2022/01/01 01:04:29;;;;;;;35.55;15.43;;;;;;;12.31;87.06;100599.97;5058242;28;20025;-83
2022/01/01 01:06:55;;;;;;;24.58;10.95;;;;;;;12.18;87.58;100612.97;5058171;28;20444;-84
2022/01/01 01:09:20;;;;;;;22.35;10.25;;;;;;;12.25;87.65;100613.59;5057557;28;20510;-83
2022/01/01 01:11:48;;;;;;;16.70;8.35;;;;;;;12.17;87.56;100618.69;5057798;28;20044;-83
2022/01/01 01:14:22;;;;;;;15.35;8.98;;;;;;;12.23;87.50;100620.41;5058640;28;20056;-83
2022/01/01 01:16:48;;;;;;;18.52;8.23;;;;;;;12.32;87.12;100612.56;5059685;28;20502;-83
2022/01/01 01:19:14;;;;;;;18.20;8.55;;;;;;;12.14;87.64;100615.38;5057413;28;20031;-84
2022/01/01 01:21:40;;;;;;;15.05;8.43;;;;;;;12.26;87.48;100611.69;5057392;28;20029;-83
2022/01/01 01:24:05;;;;;;;20.20;8.68;;;;;;;12.22;87.40;100622.31;5057046;28;20079;-83
2022/01/01 01:26:31;;;;;;;17.40;9.13;;;;;;;12.17;88.47;100619.50;5057775;28;20024;-84
2022/01/01 01:28:57;;;;;;;18.85;8.55;;;;;;;12.22;87.66;100627.78;5057383;28;20041;-83
2022/01/01 01:31:24;;;;;;;15.57;7.70;;;;;;;12.28;87.39;100615.00;5055993;28;20029;-83
2022/01/01 01:33:50;;;;;;;17.33;8.65;;;;;;;12.26;87.34;100628.91;5058173;28;20033;-83
2022/01/01 01:36:15;;;;;;;17.17;8.27;;;;;;;12.31;86.84;100621.84;5058539;28;20505;-83
2022/01/01 01:38:40;;;;;;;20.45;9.30;;;;;;;12.18;88.10;100620.34;5055149;28;20032;-83
2022/01/01 01:43:54;;;;;;;18.10;8.35;;;;;;;12.32;87.21;100620.78;5058743;28;20040;-84
2022/01/01 01:46:19;;;;;;;21.83;9.50;;;;;;;12.34;87.00;100607.69;5056723;28;20024;-83
2022/01/01 01:48:46;;;;;;;22.17;9.77;;;;;;;12.04;88.20;100612.47;5056612;28;20033;-83
2022/01/01 01:51:11;;;;;;;16.23;7.55;;;;;;;12.35;87.05;100620.25;5057458;28;20032;-83
2022/01/01 01:53:38;;;;;;;17.17;8.25;;;;;;;12.24;87.63;100616.59;5058127;28;20070;-84
2022/01/01 01:56:04;;;;;;;21.27;8.40;;;;;;;12.34;87.17;100622.19;5056888;28;20029;-83
2022/01/01 01:58:30;;;;;;;20.10;9.60;;;;;;;12.19;87.55;100611.88;5055727;28;20029;-83
2022/01/01 02:03:40;;;;;;;15.85;7.15;;;;;;;12.32;87.00;100616.16;5057264;28;20054;-84
2022/01/01 02:06:06;;;;;;;19.02;6.47;;;;;;;12.25;87.24;100608.13;5058494;28;20115;-84
2022/01/01 02:08:32;;;;;;;20.83;9.77;;;;;;;12.28;87.17;100614.16;5056438;28;20060;-83
2022/01/01 02:10:57;;;;;;;17.83;7.75;;;;;;;12.21;87.14;100617.91;5056871;28;20043;-85
2022/01/01 02:13:32;;;;;;;20.10;7.75;;;;;;;12.20;87.85;100626.38;5056576;28;20024;-84
2022/01/01 02:16:25;;;;;;;13.70;7.60;;;;;;;12.07;88.08;100622.06;5057950;28;20043;-83
2022/01/01 02:18:47;;;;;;;15.32;7.50;;;;;;;12.17;87.97;100624.97;5054878;28;20066;-84
2022/01/01 02:21:13;;;;;;;18.55;8.15;;;;;;;12.30;86.75;100634.72;5054235;28;20509;-83
2022/01/01 02:23:43;;;;;;;20.63;7.90;;;;;;;12.26;87.20;100642.56;5056134;28;20090;-84
2022/01/01 02:26:12;;;;;;;16.05;7.68;;;;;;;12.15;87.19;100632.59;5055672;28;20037;-83
2022/01/01 02:29:03;;;;;;;16.25;7.53;;;;;;;12.17;87.29;100630.44;5056446;28;20063;-84
2022/01/01 02:31:31;;;;;;;19.33;8.02;;;;;;;12.19;86.99;100639.22;5057554;28;20428;-82
2022/01/01 02:34:02;;;;;;;15.63;7.40;;;;;;;12.21;86.97;100626.13;5054994;28;20512;-83
2022/01/01 02:36:30;;;;;;;26.70;9.93;;;;;;;12.06;86.84;100639.56;5053689;28;20380;-84
2022/01/01 02:38:56;;;;;;;17.33;9.02;;;;;;;12.39;85.82;100626.06;5056602;28;20029;-83
2022/01/01 02:41:21;;;;;;;17.85;8.75;;;;;;;12.16;86.88;100628.81;5056350;28;20633;-84
2022/01/01 02:43:46;;;;;;;20.92;10.65;;;;;;;12.24;86.53;100625.59;5055591;28;20028;-82
2022/01/01 02:46:12;;;;;;;23.85;7.40;;;;;;;12.28;86.40;100625.94;5056120;28;20024;-84
2022/01/01 02:48:37;;;;;;;15.88;6.55;;;;;;;11.98;86.19;100629.91;5055481;28;20055;-84
2022/01/01 02:51:03;;;;;;;20.27;8.43;;;;;;;12.26;86.28;100617.16;5054717;28;20039;-83
2022/01/01 02:53:30;;;;;;;11.40;6.30;;;;;;;12.28;85.84;100614.16;5056562;28;20024;-83
2022/01/01 02:55:55;;;;;;;18.40;8.07;;;;;;;12.20;85.50;100613.53;5054649;28;20550;-83
2022/01/01 02:58:20;;;;;;;12.38;6.30;;;;;;;12.06;85.82;100618.50;5054748;28;20110;-83
2022/01/01 03:00:46;;;;;;;16.40;6.50;;;;;;;12.19;85.85;100628.28;5050925;28;20111;-83
2022/01/01 03:03:11;;;;;;;38.40;10.48;;;;;;;12.23;85.63;100626.69;5041293;28;20741;-84
2022/01/01 03:05:37;;;;;;;23.97;8.97;;;;;;;12.06;85.95;100629.44;5044776;28;20070;-84
2022/01/01 03:08:04;;;;;;;18.13;6.95;;;;;;;12.13;85.56;100634.75;5042880;28;20282;-84
2022/01/01 03:10:29;;;;;;;12.23;6.80;;;;;;;12.23;84.73;100645.00;5043617;28;20363;-84
2022/01/01 03:12:54;;;;;;;15.50;6.95;;;;;;;12.36;84.34;100650.09;5044344;28;20021;-84
2022/01/01 03:15:20;;;;;;;13.80;6.47;;;;;;;12.25;84.78;100649.13;5043881;28;20025;-83
2022/01/01 03:17:45;;;;;;;19.90;8.88;;;;;;;12.41;84.93;100649.31;5043833;28;20025;-84
2022/01/01 03:20:11;;;;;;;25.65;7.28;;;;;;;12.28;84.96;100655.19;5043346;28;20029;-84
2022/01/01 03:22:36;;;;;;;20.45;8.35;;;;;;;12.21;85.02;100653.47;5042170;28;20021;-82
2022/01/01 03:25:02;;;;;;;15.45;8.30;;;;;;;12.20;85.29;100645.53;5044097;28;20113;-83
2022/01/01 03:27:27;;;;;;;18.13;8.85;;;;;;;12.29;84.94;100651.34;5042167;28;20025;-83
2022/01/01 03:29:54;;;;;;;27.58;7.72;;;;;;;12.33;84.75;100642.38;5043157;28;20053;-83
2022/01/01 03:32:19;;;;;;;18.90;9.63;;;;;;;12.24;84.90;100644.72;5041936;28;20032;-83
2022/01/01 03:34:44;;;;;;;20.15;9.23;;;;;;;12.35;84.53;100639.41;5043145;28;20276;-83
2022/01/01 03:37:10;;;;;;;15.32;8.48;;;;;;;12.22;85.45;100636.00;5043439;28;20394;-83
2022/01/01 03:39:35;;;;;;;20.00;9.60;;;;;;;12.17;85.19;100641.38;5041930;28;20661;-83
2022/01/01 03:42:00;;;;;;;22.85;9.75;;;;;;;12.11;84.82;100639.66;5043935;28;20021;-84
2022/01/01 03:44:26;;;;;;;17.38;9.50;;;;;;;12.21;85.29;100639.78;5043118;28;20028;-83
2022/01/01 03:46:55;;;;;;;22.67;9.73;;;;;;;12.05;85.63;100643.38;5041712;28;20037;-84
2022/01/01 03:49:20;;;;;;;21.48;10.02;;;;;;;12.18;84.89;100631.28;5043677;28;20965;-84
2022/01/01 03:51:46;;;;;;;22.70;10.43;;;;;;;12.21;85.28;100644.41;5043204;28;20503;-84
2022/01/01 03:54:12;;;;;;;16.10;9.40;;;;;;;12.29;85.11;100637.69;5043992;28;20074;-83
2022/01/01 03:56:38;;;;;;;18.80;8.60;;;;;;;12.23;84.91;100639.53;5043460;28;20314;-83
2022/01/01 03:59:03;;;;;;;22.73;9.73;;;;;;;12.23;85.13;100639.53;5042806;28;20104;-83
2022/01/01 04:01:28;;;;;;;17.40;8.52;;;;;;;12.21;84.58;100630.75;5044345;28;20059;-82
2022/01/01 04:03:54;;;;;;;25.27;10.53;;;;;;;12.13;85.61;100635.59;5041158;28;20066;-83
2022/01/01 04:06:19;;;;;;;18.33;9.73;;;;;;;12.23;84.77;100634.06;5044491;28;20270;-83
2022/01/01 04:08:44;;;;;;;15.93;8.00;;;;;;;12.41;84.59;100630.16;5043563;28;20039;-83
2022/01/01 04:11:10;;;;;;;18.75;10.90;;;;;;;12.45;83.99;100633.22;5043511;28;20021;-83
2022/01/01 04:13:35;;;;;;;19.77;9.05;;;;;;;12.38;84.17;100619.75;5047289;28;20033;-83
2022/01/01 04:16:00;;;;;;;22.70;10.48;;;;;;;12.09;85.06;100617.19;5046992;28;20028;-83
2022/01/01 04:18:30;;;;;;;15.38;8.60;;;;;;;12.30;84.55;100620.22;5045552;28;20024;-83
2022/01/01 04:20:55;;;;;;;14.82;7.72;;;;;;;12.09;84.95;100607.09;5046823;28;20173;-84
2022/01/01 04:23:23;;;;;;;29.33;10.40;;;;;;;12.01;85.03;100615.72;5047235;28;20087;-83
2022/01/01 04:25:48;;;;;;;17.63;9.02;;;;;;;12.06;84.98;100617.72;5047295;28;20520;-84
2022/01/01 04:28:14;;;;;;;29.35;10.30;;;;;;;11.99;85.58;100613.25;5046298;28;20968;-83
2022/01/01 04:30:39;;;;;;;15.00;7.50;;;;;;;12.03;85.27;100624.50;5045727;28;20215;-84
2022/01/01 04:33:04;;;;;;;22.80;8.80;;;;;;;12.08;84.91;100624.56;5046685;28;21035;-84
2022/01/01 04:35:30;;;;;;;18.40;9.30;;;;;;;11.99;85.12;100618.72;5047443;28;20530;-84
2022/01/01 04:37:55;;;;;;;17.40;9.38;;;;;;;11.85;85.65;100620.16;5046423;28;20032;-84
2022/01/01 04:40:20;;;;;;;15.40;8.57;;;;;;;12.05;85.58;100619.59;5045663;28;20021;-83
2022/01/01 04:42:46;;;;;;;25.92;9.80;;;;;;;11.96;85.22;100621.13;5046634;28;20028;-83
2022/01/01 04:45:11;;;;;;;18.83;8.52;;;;;;;12.07;85.48;100619.34;5046858;28;20049;-83
2022/01/01 04:47:37;;;;;;;17.27;7.18;;;;;;;12.02;85.37;100620.13;5046306;28;20052;-83
2022/01/01 04:50:04;;;;;;;16.35;7.30;;;;;;;12.11;84.90;100628.72;5047479;28;20029;-84
2022/01/01 04:52:30;;;;;;;19.63;7.88;;;;;;;12.13;84.97;100618.38;5046094;28;20476;-84
2022/01/01 04:54:55;;;;;;;17.95;7.20;;;;;;;12.08;84.11;100616.34;5046778;28;20036;-85
2022/01/01 04:57:25;;;;;;;19.50;6.65;;;;;;;12.13;84.38;100629.28;5045905;28;20147;-83
2022/01/01 04:59:50;;;;;;;10.95;5.63;;;;;;;12.16;83.64;100617.88;5046724;28;20647;-84
2022/01/01 05:02:15;;;;;;;9.90;4.80;;;;;;;11.96;84.11;100612.94;5046335;28;20037;-84
2022/01/01 05:04:41;;;;;;;16.30;6.93;;;;;;;12.08;84.46;100605.41;5046366;28;20378;-83
2022/01/01 05:07:07;;;;;;;12.73;5.55;;;;;;;11.97;83.80;100609.13;5046803;28;20653;-83
2022/01/01 05:09:32;;;;;;;12.40;5.75;;;;;;;11.82;84.41;100609.75;5046664;28;20030;-84
2022/01/01 05:11:58;;;;;;;11.63;5.13;;;;;;;12.01;84.05;100618.47;5046194;28;20417;-84
2022/01/01 05:14:23;;;;;;;15.45;6.68;;;;;;;11.99;83.41;100616.00;5045669;28;20989;-84
2022/01/01 05:16:51;;;;;;;13.35;5.15;;;;;;;12.18;83.24;100623.91;5044396;28;20065;-84
2022/01/01 05:19:16;;;;;;;20.38;6.00;;;;;;;12.02;83.44;100634.59;5044484;28;20025;-84
2022/01/01 05:21:42;;;;;;;18.60;5.80;;;;;;;12.01;83.82;100637.59;5045980;28;20509;-85
2022/01/01 05:24:08;;;;;;;16.45;6.03;;;;;;;12.19;83.25;100638.38;5046101;28;20021;-84
2022/01/01 05:26:33;;;;;;;14.93;6.40;;;;;;;12.23;83.19;100632.16;5045927;28;20031;-84
2022/01/01 05:32:02;;;;;;;15.88;5.63;;;;;;;12.12;83.28;100639.41;5047516;28;20052;-84
2022/01/01 05:34:27;;;;;;;11.55;5.13;;;;;;;12.10;83.92;100647.00;5045708;28;20028;-83
2022/01/01 05:36:52;;;;;;;13.68;5.90;;;;;;;11.93;84.33;100660.72;5045968;28;20709;-83
2022/01/01 05:39:18;;;;;;;11.02;4.65;;;;;;;12.14;83.92;100664.56;5046467;28;20108;-84
2022/01/01 05:41:43;;;;;;;21.80;7.97;;;;;;;12.08;83.82;100660.09;5046625;28;20028;-84
2022/01/01 05:44:08;;;;;;;13.68;6.68;;;;;;;12.19;83.38;100658.34;5045137;28;20100;-84
2022/01/01 05:46:34;;;;;;;9.65;4.75;;;;;;;12.19;83.37;100658.34;5044879;28;20054;-84
2022/01/01 05:48:59;;;;;;;13.93;5.53;;;;;;;12.22;83.33;100663.31;5045145;28;20043;-84
2022/01/01 05:51:25;;;;;;;13.05;5.95;;;;;;;12.09;83.64;100669.94;5045521;28;20483;-84
2022/01/01 05:53:50;;;;;;;14.10;6.03;;;;;;;12.11;83.47;100670.56;5044979;28;20509;-84
2022/01/01 05:56:15;;;;;;;11.15;4.95;;;;;;;12.37;82.97;100661.84;5045202;28;20048;-84
2022/01/01 05:58:41;;;;;;;16.17;5.97;;;;;;;12.06;83.97;100672.38;5044240;28;20033;-84
2022/01/01 06:01:06;;;;;;;20.70;6.43;;;;;;;12.13;83.75;100656.63;5043819;28;20426;-84
2022/01/01 06:03:31;;;;;;;15.55;5.85;;;;;;;12.14;83.37;100652.84;5046307;28;20808;-85
2022/01/01 06:05:57;;;;;;;10.32;5.55;;;;;;;12.14;83.56;100658.31;5045438;28;20515;-83
2022/01/01 06:08:24;;;;;;;12.00;5.20;;;;;;;12.10;83.55;100659.84;5044317;28;20028;-84
2022/01/01 06:10:49;;;;;;;17.33;6.88;;;;;;;11.99;83.86;100656.97;5045347;28;20033;-84
2022/01/01 06:13:15;;;;;;;13.27;6.10;;;;;;;12.18;83.39;100653.97;5045269;28;20846;-83
2022/01/01 06:15:42;;;;;;;12.15;4.78;;;;;;;12.06;83.83;100661.44;5044818;28;20468;-83
2022/01/01 06:18:08;;;;;;;19.02;5.88;;;;;;;12.27;82.93;100662.53;5044784;28;20041;-85
2022/01/01 06:20:33;;;;;;;15.90;5.68;;;;;;;12.10;83.53;100659.84;5045649;28;20087;-84
2022/01/01 06:23:01;;;;;;;15.57;5.10;;;;;;;12.28;83.05;100657.91;5043295;28;20075;-83
2022/01/01 06:25:26;;;;;;;12.75;4.95;;;;;;;12.02;83.53;100656.47;5043976;28;20289;-83
2022/01/01 06:27:51;;;;;;;16.38;5.50;;;;;;;12.07;83.99;100669.38;5043767;28;20472;-84
2022/01/01 06:30:17;;;;;;;15.67;6.57;;;;;;;12.22;83.30;100674.25;5045085;28;20055;-84
2022/01/01 06:35:46;;;;;;;12.30;5.00;;;;;;;12.13;83.08;100678.50;5044208;28;20071;-84
2022/01/01 06:38:13;;;;;;;14.82;5.25;;;;;;;12.03;83.72;100682.72;5044707;28;20031;-84
2022/01/01 06:40:39;;;;;;;11.15;4.90;;;;;;;11.98;83.70;100679.91;5045183;28;20343;-83
2022/01/01 06:43:06;;;;;;;8.35;3.83;;;;;;;11.93;83.75;100674.38;5043150;28;20029;-84
2022/01/01 06:45:32;;;;;;;11.10;4.32;;;;;;;11.92;84.12;100678.19;5044750;28;20496;-84
2022/01/01 06:47:57;;;;;;;15.68;4.63;;;;;;;12.01;83.75;100670.38;5043484;28;20067;-84
2022/01/01 06:50:22;;;;;;;14.27;4.85;;;;;;;12.02;83.79;100672.06;5044696;28;20279;-84
2022/01/01 06:52:48;;;;;;;12.30;4.78;;;;;;;11.90;83.79;100670.25;5044922;28;20032;-83
2022/01/01 06:55:14;;;;;;;9.57;3.97;;;;;;;11.86;84.24;100668.25;5044028;28;20487;-84
2022/01/01 06:57:41;;;;;;;11.85;3.80;;;;;;;11.88;83.56;100677.03;5043432;28;20024;-84
2022/01/01 07:00:08;;;;;;;12.38;3.85;;;;;;;11.81;83.83;100669.03;5044168;28;20598;-84
2022/01/01 07:02:41;;;;;;;11.85;4.80;;;;;;;11.94;83.22;100678.75;5045083;28;20067;-84
2022/01/01 07:05:07;;;;;;;7.60;3.57;;;;;;;11.85;83.26;100683.84;5042727;28;20033;-84
2022/01/01 07:07:32;;;;;;;11.05;3.08;;;;;;;11.96;82.95;100686.72;5043986;28;20037;-84
2022/01/01 07:09:58;;;;;;;17.63;4.97;;;;;;;12.07;82.52;100687.69;5042739;28;20043;-84
2022/01/01 07:12:23;;;;;;;9.87;3.60;;;;;;;12.06;82.35;100689.56;5044549;28;20025;-84
2022/01/01 07:14:48;;;;;;;12.38;4.90;;;;;;;12.10;81.73;100690.72;5044517;28;20296;-84
2022/01/01 07:17:13;;;;;;;7.85;3.33;;;;;;;11.99;81.99;100684.31;5044083;28;20602;-84
2022/01/01 07:19:39;;;;;;;11.67;3.67;;;;;;;11.87;82.86;100678.94;5042507;28;20033;-83
2022/01/01 07:22:17;;;;;;;9.05;2.78;;;;;;;11.92;82.87;100678.19;5044069;28;20303;-84
2022/01/01 07:24:44;;;;;;;12.75;3.30;;;;;;;11.86;82.62;100673.72;5043530;28;20030;-82
2022/01/01 07:27:10;;;;;;;11.48;3.53;;;;;;;11.86;83.05;100668.25;5041979;28;20028;-83
2022/01/01 07:29:35;;;;;;;10.73;3.17;;;;;;;11.91;83.02;100676.53;5041948;28;20450;-85
2022/01/01 07:32:00;;;;;;;10.05;3.38;;;;;;;11.74;83.59;100671.91;5043938;28;20020;-84
2022/01/01 07:34:26;;;;;;;10.40;4.10;;;;;;;11.89;82.71;100684.16;5043065;28;20025;-85
2022/01/01 07:36:51;;;;;;;7.30;2.60;;;;;;;11.90;82.60;100691.25;5043795;28;20060;-83
2022/01/01 07:39:16;;;;;;;7.70;3.13;;;;;;;11.95;81.96;100695.97;5043407;28;20274;-84
2022/01/01 07:41:42;;;;;;;7.77;3.20;;;;;;;11.89;82.41;100695.91;5043537;28;21042;-83
2022/01/01 07:44:07;;;;;;;6.30;2.70;;;;;;;11.88;82.16;100690.69;5043648;28;20266;-82
2022/01/01 07:46:33;;;;;;;9.15;3.38;;;;;;;12.05;82.06;100695.31;5042056;28;20774;-84
2022/01/01 07:48:58;;;;;;;10.00;3.05;;;;;;;12.05;80.98;100706.22;5042421;28;20120;-84
2022/01/01 07:51:24;;;;;;;7.18;3.17;;;;;;;12.16;81.64;100702.63;5043778;28;20040;-84
2022/01/01 07:53:49;;;;;;;17.90;4.03;;;;;;;12.09;81.47;100708.22;5043235;28;20077;-84
2022/01/01 07:56:15;;;;;;;7.45;3.03;;;;;;;12.31;80.93;100712.91;5043844;28;20040;-83
2022/01/01 07:58:40;;;;;;;14.55;3.47;;;;;;;12.32;80.75;100703.63;5043432;28;20111;-83
2022/01/01 08:01:05;;;;;;;9.73;3.23;;;;;;;12.15;81.03;100698.22;5043803;28;20408;-84
2022/01/01 08:03:31;;;;;;;5.97;2.72;;;;;;;12.21;81.25;100708.13;5042317;28;20262;-84
2022/01/01 08:05:56;;;;;;;17.13;4.28;;;;;;;12.23;80.72;100711.44;5042961;28;20025;-84
2022/01/01 08:08:22;;;;;;;7.03;2.63;;;;;;;12.26;80.66;100715.59;5043556;28;20028;-84
2022/01/01 08:10:47;;;;;;;8.60;2.70;;;;;;;12.07;80.72;100717.75;5042567;28;20526;-84
2022/01/01 08:13:21;;;;;;;9.63;4.28;;;;;;;12.05;81.04;100703.50;5042487;28;20191;-85
2022/01/01 08:15:46;;;;;;;7.75;2.60;;;;;;;11.99;81.54;100705.34;5041530;28;20128;-84
2022/01/01 08:18:12;;;;;;;12.20;4.63;;;;;;;11.93;81.19;100709.91;5041135;28;20021;-85
2022/01/01 08:20:37;;;;;;;10.07;4.22;;;;;;;11.79;81.57;100695.75;5043081;28;20045;-84
2022/01/01 08:23:03;;;;;;;13.13;3.15;;;;;;;11.80;81.81;100708.34;5042785;28;20041;-84
2022/01/01 08:25:28;;;;;;;8.37;3.27;;;;;;;11.84;81.01;100709.50;5042185;28;20367;-84
2022/01/01 08:27:53;;;;;;;8.50;2.47;;;;;;;11.83;81.49;100707.84;5043199;28;20677;-83
2022/01/01 08:30:19;;;;;;;13.38;2.70;;;;;;;11.87;81.12;100714.47;5046932;28;20044;-84
2022/01/01 08:32:44;;;;;;;5.90;2.75;;;;;;;12.05;80.50;100720.72;5054245;28;20414;-83
2022/01/01 08:35:10;;;;;;;6.55;1.90;;;;;;;11.97;80.13;100719.25;5048571;28;20020;-84
2022/01/01 08:37:35;;;;;;;8.48;2.60;;;;;;;11.98;80.93;100720.09;5054605;28;20044;-84
2022/01/01 08:40:01;;;;;;;10.63;2.58;;;;;;;12.03;80.65;100729.19;5052877;28;20411;-84
2022/01/01 08:42:26;;;;;;;24.45;4.38;;;;;;;12.22;80.71;100739.03;5052233;28;20041;-84
2022/01/01 08:44:51;;;;;;;7.50;2.70;;;;;;;12.30;79.88;100740.50;5053559;28;20033;-84
2022/01/01 08:47:17;;;;;;;11.35;3.65;;;;;;;12.24;79.81;100743.16;5054225;28;20037;-84
2022/01/01 08:49:42;;;;;;;5.47;2.60;;;;;;;12.24;79.63;100742.34;5054120;28;20464;-84
2022/01/01 08:52:11;;;;;;;8.18;2.88;;;;;;;12.22;79.31;100745.34;5053902;28;20041;-85
2022/01/01 08:54:37;;;;;;;12.05;3.08;;;;;;;12.31;79.51;100744.88;5054192;28;20028;-84
2022/01/01 08:57:04;;;;;;;7.85;2.75;;;;;;;11.99;79.25;100740.88;5054049;28;20064;-85
2022/01/01 08:59:29;;;;;;;10.60;3.28;;;;;;;12.14;79.79;100746.56;5058035;28;20506;-84
2022/01/01 09:01:55;;;;;;;15.20;3.08;;;;;;;12.09;79.17;100743.75;5056620;28;20051;-84
2022/01/01 09:04:20;;;;;;;12.23;3.28;;;;;;;12.12;79.29;100737.81;5058122;28;20037;-83
2022/01/01 09:06:45;;;;;;;7.85;2.97;;;;;;;12.00;79.25;100732.41;5059109;28;20040;-83
2022/01/01 09:09:11;;;;;;;10.63;2.10;;;;;;;11.99;79.65;100738.97;5057748;28;20494;-84
2022/01/01 09:11:36;;;;;;;13.63;2.55;;;;;;;12.05;79.34;100737.13;5057407;28;20273;-84
2022/01/01 09:14:02;;;;;;;10.10;2.30;;;;;;;12.06;79.61;100737.97;5059494;28;20429;-85
2022/01/01 09:16:29;;;;;;;17.63;5.53;;;;;;;12.08;79.31;100728.41;5059262;28;20051;-84
2022/01/01 09:18:56;;;;;;;5.50;2.75;;;;;;;12.17;78.43;100734.31;5057086;28;20065;-83
2022/01/01 09:21:22;;;;;;;8.65;3.28;;;;;;;12.20;78.23;100743.94;5058048;28;20500;-83
2022/01/01 09:23:47;;;;;;;5.60;1.83;;;;;;;12.06;78.93;100732.50;5056705;28;20067;-84
2022/01/01 09:26:12;;;;;;;19.67;4.35;;;;;;;12.09;79.55;100737.44;5056943;28;20040;-84
2022/01/01 09:28:38;;;;;;;6.95;2.88;;;;;;;12.07;78.67;100723.22;5054593;28;20052;-85
2022/01/01 09:31:03;;;;;;;5.95;1.95;;;;;;;12.22;78.45;100728.94;5056973;28;20132;-84
2022/01/01 09:33:30;;;;;;;7.05;2.40;;;;;;;12.48;77.76;100720.22;5059774;28;20036;-83
2022/01/01 09:35:56;;;;;;;6.25;2.25;;;;;;;12.33;77.37;100729.06;5053652;28;20123;-84
2022/01/01 09:38:22;;;;;;;7.35;1.98;;;;;;;12.36;77.56;100725.84;5054976;28;20035;-83
2022/01/01 09:40:48;;;;;;;6.47;2.38;;;;;;;12.33;77.56;100726.31;5055221;28;20365;-84
2022/01/01 09:43:14;;;;;;;8.38;2.53;;;;;;;12.29;76.92;100716.97;5053050;28;20109;-84
2022/01/01 09:48:42;;;;;;;7.25;2.10;;;;;;;12.26;77.44;100716.38;5049584;28;20123;-84
2022/01/01 09:51:09;;;;;;;13.60;3.65;;;;;;;12.34;77.64;100719.78;5054896;28;20123;-84
2022/01/01 09:53:35;;;;;;;7.40;3.22;;;;;;;12.46;76.47;100717.75;5050979;28;20020;-84
2022/01/01 09:56:03;;;;;;;12.25;2.67;;;;;;;12.57;76.61;100726.91;5051940;28;20132;-84
2022/01/01 09:58:31;;;;;;;9.13;2.15;;;;;;;12.45;76.87;100727.03;5052125;28;20498;-84
2022/01/01 10:00:56;;;;;;;6.00;1.85;;;;;;;12.57;76.11;100732.38;5051640;28;20033;-84
2022/01/01 10:03:42;;;;;;;6.97;2.05;;;;;;;12.59;76.52;100740.34;5053095;28;20024;-84
2022/01/01 10:06:12;;;;;;;10.30;2.25;;;;;;;12.57;75.94;100735.09;5052223;28;20032;-84
2022/01/01 10:08:39;;;;;;;10.20;3.15;;;;;;;12.48;76.76;100734.75;5056313;28;20032;-84
2022/01/01 10:11:05;;;;;;;5.05;1.80;;;;;;;12.57;76.13;100737.03;5056624;28;20128;-85
2022/01/01 10:13:33;;;;;;;6.68;2.78;;;;;;;12.75;76.11;100733.16;5056570;28;20457;-83
2022/01/01 10:16:07;;;;;;;8.45;3.00;;;;;;;12.70;75.62;100741.28;5057295;28;20037;-84
2022/01/01 10:18:36;;;;;;;12.30;2.53;;;;;;;12.60;75.98;100740.09;5056863;28;20016;-85
2022/01/01 10:21:08;;;;;;;15.25;3.90;;;;;;;12.61;76.13;100739.00;5053645;28;20052;-84
2022/01/01 10:23:36;;;;;;;4.50;1.88;;;;;;;12.72;75.23;100734.47;5056865;28;20028;-84
2022/01/01 10:29:05;;;;;;;8.15;2.83;;;;;;;12.67;76.19;100725.38;5053513;28;20063;-84
2022/01/01 10:31:33;;;;;;;4.90;2.15;;;;;;;12.77;75.97;100730.16;5055258;28;20484;-84
2022/01/01 10:33:58;;;;;;;7.63;2.22;;;;;;;13.05;74.89;100720.06;5054730;28;20045;-85
2022/01/01 10:36:23;;;;;;;6.13;2.45;;;;;;;12.80;75.27;100724.16;5053907;28;20086;-84
2022/01/01 10:38:49;;;;;;;7.40;2.28;;;;;;;12.67;75.90;100720.72;5060995;28;20032;-84
2022/01/01 10:41:16;;;;;;;12.38;3.50;;;;;;;12.89;75.17;100722.63;5055128;28;20041;-84
2022/01/01 10:43:44;;;;;;;8.68;2.90;;;;;;;12.95;74.74;100727.09;5054426;28;20078;-84
2022/01/01 10:46:16;;;;;;;9.93;2.22;;;;;;;13.10;74.83;100717.34;5055314;28;20037;-85
2022/01/01 10:48:55;;;;;;;4.80;1.95;;;;;;;13.06;74.25;100718.94;5056029;28;20036;-84
2022/01/01 10:51:21;;;;;;;6.38;2.05;;;;;;;13.10;74.25;100716.53;5055321;28;20446;-84
2022/01/01 10:53:59;;;;;;;7.82;2.00;;;;;;;13.10;74.40;100717.34;5054716;28;20040;-84
2022/01/01 10:56:24;;;;;;;9.18;2.33;;;;;;;13.07;74.48;100715.16;5054540;28;20045;-84
2022/01/01 10:59:00;;;;;;;8.97;2.20;;;;;;;13.15;74.17;100703.72;5056794;28;20032;-84
2022/01/01 11:01:25;;;;;;;7.68;2.05;;;;;;;12.98;74.20;100709.28;5053897;28;20277;-84
2022/01/01 11:03:54;;;;;;;14.77;2.80;;;;;;;13.04;74.83;100700.06;5054620;28;20021;-83
2022/01/01 11:06:19;;;;;;;5.38;2.30;;;;;;;13.09;74.36;100707.50;5055228;28;20221;-84
2022/01/01 11:08:46;;;;;;;7.65;3.08;;;;;;;13.18;74.06;100697.72;5054573;28;20115;-84
2022/01/01 11:11:13;;;;;;;5.50;1.88;;;;;;;13.19;73.59;100693.91;5053820;28;20495;-85
2022/01/01 11:13:39;;;;;;;3.50;1.83;;;;;;;13.33;73.81;100693.47;5055138;28;20104;-84
2022/01/01 11:16:19;;;;;;;4.60;1.80;;;;;;;13.19;73.83;100687.59;5053173;28;20055;-84
2022/01/01 11:18:45;;;;;;;6.50;2.33;;;;;;;13.13;73.26;100681.25;5054832;28;20035;-85
2022/01/01 11:21:10;;;;;;;4.70;2.40;;;;;;;13.15;73.84;100681.00;5054756;28;20040;-85
2022/01/01 11:23:49;;;;;;;5.55;2.30;;;;;;;13.05;73.61;100679.81;5054923;28;20040;-85
2022/01/01 11:26:16;;;;;;;9.90;3.28;;;;;;;13.15;73.48;100679.09;5054924;28;20037;-84
2022/01/01 11:28:41;;;;;;;4.90;1.45;;;;;;;13.07;73.63;100674.91;5053661;28;20533;-84
2022/01/01 11:31:10;;;;;;;6.50;1.73;;;;;;;13.13;73.25;100669.47;5055459;28;20045;-84
2022/01/01 11:33:44;;;;;;;6.07;1.40;;;;;;;13.15;73.64;100659.94;5053118;28;20043;-84
2022/01/01 11:36:22;;;;;;;12.48;3.92;;;;;;;13.33;73.29;100649.66;5054408;28;20475;-84